sensor_id;sensor_type;location;lat;lon;timestamp;temperature;humidity
10431;DHT22;5262;59.958;17.726;2023-03-21T00:01:12;-2.80;99.90
10431;DHT22;5262;59.958;17.726;2023-03-21T00:03:37;-2.90;99.90
10431;DHT22;5262;59.958;17.726;2023-03-21T00:06:08;-2.90;99.90
10431;DHT22;5262;59.958;17.726;2023-03-21T00:08:35;-2.90;99.90
10431;DHT22;5262;59.958;17.726;2023-03-21T00:11:03;-3.00;99.90
10431;DHT22;5262;59.958;17.726;2023-03-21T00:13:31;-3.00;99.90
10431;DHT22;5262;59.958;17.726;2023-03-21T00:16:03;-3.00;99.90
10431;DHT22;5262;59.958;17.726;2023-03-21T00:18:28;-3.10;99.90
10431;DHT22;5262;59.958;17.726;2023-03-21T00:20:56;-3.10;99.90
10431;DHT22;5262;59.958;17.726;2023-03-21T00:23:23;-3.10;99.90
10431;DHT22;5262;59.958;17.726;2023-03-21T00:25:49;-3.10;99.90
10431;DHT22;5262;59.958;17.726;2023-03-21T00:28:16;-3.20;99.90
10431;DHT22;5262;59.958;17.726;2023-03-21T00:30:41;-3.20;99.90
10431;DHT22;5262;59.958;17.726;2023-03-21T00:33:07;-3.20;99.90
10431;DHT22;5262;59.958;17.726;2023-03-21T00:35:33;-3.30;99.90
10431;DHT22;5262;59.958;17.726;2023-03-21T00:37:58;-3.30;99.90
10431;DHT22;5262;59.958;17.726;2023-03-21T00:40:24;-3.30;99.90
10431;DHT22;5262;59.958;17.726;2023-03-21T00:42:49;-3.40;99.90
10431;DHT22;5262;59.958;17.726;2023-03-21T00:45:15;-3.40;99.90
10431;DHT22;5262;59.958;17.726;2023-03-21T00:47:44;-3.40;99.90
10431;DHT22;5262;59.958;17.726;2023-03-21T00:50:10;-3.40;99.90
10431;DHT22;5262;59.958;17.726;2023-03-21T00:52:37;-3.50;99.90
10431;DHT22;5262;59.958;17.726;2023-03-21T00:55:04;-3.50;99.90
10431;DHT22;5262;59.958;17.726;2023-03-21T00:57:30;-3.50;99.90
10431;DHT22;5262;59.958;17.726;2023-03-21T00:59:56;-3.50;99.90
10431;DHT22;5262;59.958;17.726;2023-03-21T01:02:24;-3.50;99.90
10431;DHT22;5262;59.958;17.726;2023-03-21T01:04:52;-3.50;99.90
10431;DHT22;5262;59.958;17.726;2023-03-21T01:07:18;-3.60;99.90
10431;DHT22;5262;59.958;17.726;2023-03-21T01:09:44;-3.60;99.90
10431;DHT22;5262;59.958;17.726;2023-03-21T01:12:10;-3.70;99.90
10431;DHT22;5262;59.958;17.726;2023-03-21T01:14:35;-3.60;99.90
10431;DHT22;5262;59.958;17.726;2023-03-21T01:17:01;-3.70;99.90
10431;DHT22;5262;59.958;17.726;2023-03-21T01:19:27;-3.70;99.90
10431;DHT22;5262;59.958;17.726;2023-03-21T01:21:54;-3.70;99.90
10431;DHT22;5262;59.958;17.726;2023-03-21T01:24:20;-3.70;99.90
10431;DHT22;5262;59.958;17.726;2023-03-21T01:26:45;-3.70;99.90
10431;DHT22;5262;59.958;17.726;2023-03-21T01:29:11;-3.70;99.90
10431;DHT22;5262;59.958;17.726;2023-03-21T01:31:37;-3.70;99.90
10431;DHT22;5262;59.958;17.726;2023-03-21T01:34:03;-3.70;99.90
10431;DHT22;5262;59.958;17.726;2023-03-21T01:36:28;-3.70;99.90
10431;DHT22;5262;59.958;17.726;2023-03-21T01:38:54;-3.70;99.90
10431;DHT22;5262;59.958;17.726;2023-03-21T01:41:34;-3.70;99.90
10431;DHT22;5262;59.958;17.726;2023-03-21T01:44:00;-3.80;99.90
10431;DHT22;5262;59.958;17.726;2023-03-21T01:46:48;-3.80;99.90
10431;DHT22;5262;59.958;17.726;2023-03-21T01:49:32;-3.80;99.90
10431;DHT22;5262;59.958;17.726;2023-03-21T01:52:03;-3.80;99.90
10431;DHT22;5262;59.958;17.726;2023-03-21T01:54:31;-3.80;99.90
10431;DHT22;5262;59.958;17.726;2023-03-21T01:57:00;-3.80;99.90
10431;DHT22;5262;59.958;17.726;2023-03-21T01:59:45;-3.80;99.90
10431;DHT22;5262;59.958;17.726;2023-03-21T02:02:21;-3.80;99.90
10431;DHT22;5262;59.958;17.726;2023-03-21T02:04:48;-3.80;99.90
10431;DHT22;5262;59.958;17.726;2023-03-21T02:07:18;-3.80;99.90
10431;DHT22;5262;59.958;17.726;2023-03-21T02:09:51;-3.80;99.90
10431;DHT22;5262;59.958;17.726;2023-03-21T02:12:18;-3.80;99.90
10431;DHT22;5262;59.958;17.726;2023-03-21T02:14:46;-3.80;99.90
10431;DHT22;5262;59.958;17.726;2023-03-21T02:17:35;-3.90;99.90
10431;DHT22;5262;59.958;17.726;2023-03-21T02:20:27;-3.80;99.90
10431;DHT22;5262;59.958;17.726;2023-03-21T02:23:15;-3.90;99.90
10431;DHT22;5262;59.958;17.726;2023-03-21T02:36:12;-3.80;99.90
10431;DHT22;5262;59.958;17.726;2023-03-21T02:38:53;-3.90;99.90
10431;DHT22;5262;59.958;17.726;2023-03-21T02:41:45;-3.80;99.90
10431;DHT22;5262;59.958;17.726;2023-03-21T02:44:46;-3.80;99.90
10431;DHT22;5262;59.958;17.726;2023-03-21T02:47:13;-3.80;99.90
10431;DHT22;5262;59.958;17.726;2023-03-21T02:49:46;-3.80;99.90
10431;DHT22;5262;59.958;17.726;2023-03-21T02:52:17;-3.80;99.90
10431;DHT22;5262;59.958;17.726;2023-03-21T02:54:46;-3.70;99.90
10431;DHT22;5262;59.958;17.726;2023-03-21T02:57:15;-3.60;99.90
10431;DHT22;5262;59.958;17.726;2023-03-21T02:59:43;-3.70;99.90
10431;DHT22;5262;59.958;17.726;2023-03-21T03:02:09;-3.70;99.90
10431;DHT22;5262;59.958;17.726;2023-03-21T03:04:35;-3.70;99.90
10431;DHT22;5262;59.958;17.726;2023-03-21T03:09:41;-3.60;99.90
10431;DHT22;5262;59.958;17.726;2023-03-21T03:12:34;-3.70;99.90
10431;DHT22;5262;59.958;17.726;2023-03-21T03:20:38;-3.80;99.90
10431;DHT22;5262;59.958;17.726;2023-03-21T03:23:24;-3.80;99.90
10431;DHT22;5262;59.958;17.726;2023-03-21T03:26:08;-3.80;99.90
10431;DHT22;5262;59.958;17.726;2023-03-21T03:28:39;-3.90;99.90
10431;DHT22;5262;59.958;17.726;2023-03-21T03:31:06;-3.90;99.90
10431;DHT22;5262;59.958;17.726;2023-03-21T03:33:34;-3.90;99.90
10431;DHT22;5262;59.958;17.726;2023-03-21T03:36:03;-3.90;99.90
10431;DHT22;5262;59.958;17.726;2023-03-21T03:38:30;-3.90;99.90
10431;DHT22;5262;59.958;17.726;2023-03-21T03:41:01;-3.90;99.90
10431;DHT22;5262;59.958;17.726;2023-03-21T03:43:48;-3.90;99.90
10431;DHT22;5262;59.958;17.726;2023-03-21T03:46:38;-4.00;99.90
10431;DHT22;5262;59.958;17.726;2023-03-21T03:49:14;-4.00;99.90
10431;DHT22;5262;59.958;17.726;2023-03-21T03:54:31;-4.00;99.90
10431;DHT22;5262;59.958;17.726;2023-03-21T03:56:57;-4.00;99.90
10431;DHT22;5262;59.958;17.726;2023-03-21T03:59:23;-4.00;99.90
10431;DHT22;5262;59.958;17.726;2023-03-21T04:01:49;-4.00;99.90
10431;DHT22;5262;59.958;17.726;2023-03-21T04:04:15;-4.00;99.90
10431;DHT22;5262;59.958;17.726;2023-03-21T04:06:44;-4.00;99.90
10431;DHT22;5262;59.958;17.726;2023-03-21T04:09:16;-4.00;99.90
10431;DHT22;5262;59.958;17.726;2023-03-21T04:11:42;-4.00;99.90
10431;DHT22;5262;59.958;17.726;2023-03-21T04:14:28;-4.00;99.90
10431;DHT22;5262;59.958;17.726;2023-03-21T04:17:14;-4.10;99.90
10431;DHT22;5262;59.958;17.726;2023-03-21T04:20:00;-4.10;99.90
10431;DHT22;5262;59.958;17.726;2023-03-21T04:22:45;-4.10;99.90
10431;DHT22;5262;59.958;17.726;2023-03-21T04:25:35;-4.10;99.90
10431;DHT22;5262;59.958;17.726;2023-03-21T04:28:21;-4.10;99.90
10431;DHT22;5262;59.958;17.726;2023-03-21T04:30:57;-4.10;99.90
10431;DHT22;5262;59.958;17.726;2023-03-21T04:33:23;-4.10;99.90
10431;DHT22;5262;59.958;17.726;2023-03-21T04:35:59;-4.10;99.90
10431;DHT22;5262;59.958;17.726;2023-03-21T04:38:35;-4.10;99.90
10431;DHT22;5262;59.958;17.726;2023-03-21T04:41:01;-4.10;99.90
10431;DHT22;5262;59.958;17.726;2023-03-21T04:43:27;-4.10;99.90
10431;DHT22;5262;59.958;17.726;2023-03-21T04:45:53;-4.10;99.90
10431;DHT22;5262;59.958;17.726;2023-03-21T04:48:20;-4.10;99.90
10431;DHT22;5262;59.958;17.726;2023-03-21T04:50:50;-4.10;99.90
10431;DHT22;5262;59.958;17.726;2023-03-21T04:53:16;-4.10;99.90
10431;DHT22;5262;59.958;17.726;2023-03-21T04:55:41;-4.10;99.90
10431;DHT22;5262;59.958;17.726;2023-03-21T04:58:07;-4.10;99.90
10431;DHT22;5262;59.958;17.726;2023-03-21T05:00:33;-4.20;99.90
10431;DHT22;5262;59.958;17.726;2023-03-21T05:03:07;-4.20;99.90
10431;DHT22;5262;59.958;17.726;2023-03-21T05:05:35;-4.10;99.90
10431;DHT22;5262;59.958;17.726;2023-03-21T05:08:01;-4.10;99.90
10431;DHT22;5262;59.958;17.726;2023-03-21T05:10:27;-4.10;99.90
10431;DHT22;5262;59.958;17.726;2023-03-21T05:12:52;-4.10;99.90
10431;DHT22;5262;59.958;17.726;2023-03-21T05:15:18;-4.10;99.90
10431;DHT22;5262;59.958;17.726;2023-03-21T05:17:44;-4.00;99.90
10431;DHT22;5262;59.958;17.726;2023-03-21T05:20:13;-3.90;99.90
10431;DHT22;5262;59.958;17.726;2023-03-21T05:22:40;-4.00;99.90
10431;DHT22;5262;59.958;17.726;2023-03-21T05:25:07;-3.90;99.90
10431;DHT22;5262;59.958;17.726;2023-03-21T05:27:33;-3.90;99.90
10431;DHT22;5262;59.958;17.726;2023-03-21T05:30:06;-3.80;99.90
10431;DHT22;5262;59.958;17.726;2023-03-21T05:32:33;-3.70;99.90
10431;DHT22;5262;59.958;17.726;2023-03-21T05:34:58;-3.60;99.90
10431;DHT22;5262;59.958;17.726;2023-03-21T05:37:25;-3.50;99.90
10431;DHT22;5262;59.958;17.726;2023-03-21T05:39:51;-3.40;99.90
10431;DHT22;5262;59.958;17.726;2023-03-21T05:42:17;-3.30;99.90
10431;DHT22;5262;59.958;17.726;2023-03-21T05:44:43;-3.20;99.90
10431;DHT22;5262;59.958;17.726;2023-03-21T05:47:11;-3.10;99.90
10431;DHT22;5262;59.958;17.726;2023-03-21T05:49:37;-3.00;99.90
10431;DHT22;5262;59.958;17.726;2023-03-21T05:52:03;-2.80;99.90
10431;DHT22;5262;59.958;17.726;2023-03-21T05:54:28;-2.70;99.90
10431;DHT22;5262;59.958;17.726;2023-03-21T05:56:54;-2.50;99.90
10431;DHT22;5262;59.958;17.726;2023-03-21T05:59:20;-2.40;99.90
10431;DHT22;5262;59.958;17.726;2023-03-21T06:01:45;-2.30;99.90
10431;DHT22;5262;59.958;17.726;2023-03-21T06:04:11;-2.20;99.90
10431;DHT22;5262;59.958;17.726;2023-03-21T06:06:37;-2.00;99.90
10431;DHT22;5262;59.958;17.726;2023-03-21T06:09:03;-2.00;99.90
10431;DHT22;5262;59.958;17.726;2023-03-21T06:11:30;-1.90;99.90
10431;DHT22;5262;59.958;17.726;2023-03-21T06:13:57;-1.70;99.90
10431;DHT22;5262;59.958;17.726;2023-03-21T06:16:22;-1.60;99.90
10431;DHT22;5262;59.958;17.726;2023-03-21T06:18:48;-1.50;99.90
10431;DHT22;5262;59.958;17.726;2023-03-21T06:21:13;-1.40;99.90
10431;DHT22;5262;59.958;17.726;2023-03-21T06:23:39;-1.40;99.90
10431;DHT22;5262;59.958;17.726;2023-03-21T06:26:05;-1.30;99.90
10431;DHT22;5262;59.958;17.726;2023-03-21T06:28:31;-1.00;99.90
10431;DHT22;5262;59.958;17.726;2023-03-21T06:30:56;-0.50;99.90
10431;DHT22;5262;59.958;17.726;2023-03-21T06:33:22;0.10;99.90
10431;DHT22;5262;59.958;17.726;2023-03-21T06:35:56;0.60;99.90
10431;DHT22;5262;59.958;17.726;2023-03-21T06:38:22;1.20;99.90
10431;DHT22;5262;59.958;17.726;2023-03-21T06:40:48;1.80;99.90
10431;DHT22;5262;59.958;17.726;2023-03-21T06:43:14;1.90;99.90
10431;DHT22;5262;59.958;17.726;2023-03-21T06:45:43;1.80;99.90
10431;DHT22;5262;59.958;17.726;2023-03-21T06:48:08;1.90;99.90
10431;DHT22;5262;59.958;17.726;2023-03-21T06:50:34;2.00;99.90
10431;DHT22;5262;59.958;17.726;2023-03-21T06:53:00;1.90;99.90
10431;DHT22;5262;59.958;17.726;2023-03-21T06:55:26;2.60;99.90
10431;DHT22;5262;59.958;17.726;2023-03-21T06:57:54;2.60;99.90
10431;DHT22;5262;59.958;17.726;2023-03-21T07:00:20;2.40;99.90
10431;DHT22;5262;59.958;17.726;2023-03-21T07:02:46;2.00;99.90
10431;DHT22;5262;59.958;17.726;2023-03-21T07:05:12;2.30;99.90
10431;DHT22;5262;59.958;17.726;2023-03-21T07:07:39;2.90;99.90
10431;DHT22;5262;59.958;17.726;2023-03-21T07:10:05;3.70;99.90
10431;DHT22;5262;59.958;17.726;2023-03-21T07:12:31;4.30;99.90
10431;DHT22;5262;59.958;17.726;2023-03-21T07:14:59;4.60;99.90
10431;DHT22;5262;59.958;17.726;2023-03-21T07:17:25;4.70;99.90
10431;DHT22;5262;59.958;17.726;2023-03-21T07:19:51;5.50;99.90
10431;DHT22;5262;59.958;17.726;2023-03-21T07:22:17;5.90;99.90
10431;DHT22;5262;59.958;17.726;2023-03-21T07:24:42;6.40;99.90
10431;DHT22;5262;59.958;17.726;2023-03-21T07:27:08;5.90;99.90
10431;DHT22;5262;59.958;17.726;2023-03-21T07:29:34;5.50;99.90
10431;DHT22;5262;59.958;17.726;2023-03-21T07:32:00;5.10;99.90
10431;DHT22;5262;59.958;17.726;2023-03-21T07:34:26;4.80;99.90
10431;DHT22;5262;59.958;17.726;2023-03-21T07:36:56;4.80;99.90
10431;DHT22;5262;59.958;17.726;2023-03-21T07:39:22;4.60;99.90
10431;DHT22;5262;59.958;17.726;2023-03-21T07:41:48;4.90;99.90
10431;DHT22;5262;59.958;17.726;2023-03-21T07:44:13;6.00;99.90
10431;DHT22;5262;59.958;17.726;2023-03-21T07:46:40;6.40;99.90
10431;DHT22;5262;59.958;17.726;2023-03-21T07:49:05;7.40;99.90
10431;DHT22;5262;59.958;17.726;2023-03-21T07:51:33;8.10;99.90
10431;DHT22;5262;59.958;17.726;2023-03-21T07:54:00;9.20;99.90
10431;DHT22;5262;59.958;17.726;2023-03-21T07:56:27;8.60;99.90
10431;DHT22;5262;59.958;17.726;2023-03-21T07:58:52;8.70;99.90
10431;DHT22;5262;59.958;17.726;2023-03-21T08:01:18;8.60;99.90
10431;DHT22;5262;59.958;17.726;2023-03-21T08:03:44;8.80;99.90
10431;DHT22;5262;59.958;17.726;2023-03-21T08:06:10;9.90;99.90
10431;DHT22;5262;59.958;17.726;2023-03-21T08:08:35;9.40;99.90
10431;DHT22;5262;59.958;17.726;2023-03-21T08:11:02;9.00;99.90
10431;DHT22;5262;59.958;17.726;2023-03-21T08:13:28;8.40;99.90
10431;DHT22;5262;59.958;17.726;2023-03-21T08:15:54;8.50;99.90
10431;DHT22;5262;59.958;17.726;2023-03-21T08:18:20;8.30;99.90
10431;DHT22;5262;59.958;17.726;2023-03-21T08:20:53;8.00;99.90
10431;DHT22;5262;59.958;17.726;2023-03-21T08:23:19;8.50;99.90
10431;DHT22;5262;59.958;17.726;2023-03-21T08:25:49;8.70;99.90
10431;DHT22;5262;59.958;17.726;2023-03-21T08:28:16;9.30;99.90
10431;DHT22;5262;59.958;17.726;2023-03-21T08:30:41;10.60;99.90
10431;DHT22;5262;59.958;17.726;2023-03-21T08:33:07;11.40;99.90
10431;DHT22;5262;59.958;17.726;2023-03-21T08:35:33;11.30;99.90
10431;DHT22;5262;59.958;17.726;2023-03-21T08:38:01;12.10;99.20
10431;DHT22;5262;59.958;17.726;2023-03-21T08:40:27;12.60;96.90
10431;DHT22;5262;59.958;17.726;2023-03-21T08:42:53;12.70;97.00
10431;DHT22;5262;59.958;17.726;2023-03-21T08:45:19;12.90;96.60
10431;DHT22;5262;59.958;17.726;2023-03-21T08:47:45;13.40;95.60
10431;DHT22;5262;59.958;17.726;2023-03-21T08:50:13;12.30;96.50
10431;DHT22;5262;59.958;17.726;2023-03-21T08:52:40;11.70;97.40
10431;DHT22;5262;59.958;17.726;2023-03-21T08:55:06;11.60;97.30
10431;DHT22;5262;59.958;17.726;2023-03-21T08:57:32;12.30;96.40
10431;DHT22;5262;59.958;17.726;2023-03-21T08:59:58;13.60;94.50
10431;DHT22;5262;59.958;17.726;2023-03-21T09:02:23;13.50;94.30
10431;DHT22;5262;59.958;17.726;2023-03-21T09:04:49;13.10;94.60
10431;DHT22;5262;59.958;17.726;2023-03-21T09:07:19;13.30;94.10
10431;DHT22;5262;59.958;17.726;2023-03-21T09:09:46;13.00;94.20
10431;DHT22;5262;59.958;17.726;2023-03-21T09:12:12;13.30;94.80
10431;DHT22;5262;59.958;17.726;2023-03-21T09:14:38;13.10;94.90
10431;DHT22;5262;59.958;17.726;2023-03-21T09:17:03;13.30;94.40
10431;DHT22;5262;59.958;17.726;2023-03-21T09:19:29;13.30;94.00
10431;DHT22;5262;59.958;17.726;2023-03-21T09:21:56;12.90;94.80
10431;DHT22;5262;59.958;17.726;2023-03-21T09:24:22;13.10;94.20
10431;DHT22;5262;59.958;17.726;2023-03-21T09:26:48;13.10;94.30
10431;DHT22;5262;59.958;17.726;2023-03-21T09:29:16;13.40;93.70
10431;DHT22;5262;59.958;17.726;2023-03-21T09:31:44;13.40;93.10
10431;DHT22;5262;59.958;17.726;2023-03-21T09:34:11;13.70;92.90
10431;DHT22;5262;59.958;17.726;2023-03-21T09:36:38;13.80;92.80
10431;DHT22;5262;59.958;17.726;2023-03-21T09:39:06;13.60;94.10
10431;DHT22;5262;59.958;17.726;2023-03-21T09:47:21;13.50;93.20
10431;DHT22;5262;59.958;17.726;2023-03-21T09:50:11;13.30;93.60
10431;DHT22;5262;59.958;17.726;2023-03-21T09:53:22;12.40;94.10
10431;DHT22;5262;59.958;17.726;2023-03-21T09:55:49;12.20;95.20
10431;DHT22;5262;59.958;17.726;2023-03-21T09:58:29;12.50;94.60
10431;DHT22;5262;59.958;17.726;2023-03-21T10:01:01;13.40;93.10
10431;DHT22;5262;59.958;17.726;2023-03-21T10:03:31;13.80;92.20
10431;DHT22;5262;59.958;17.726;2023-03-21T10:06:03;13.90;92.90
10431;DHT22;5262;59.958;17.726;2023-03-21T10:08:33;13.10;92.80
10431;DHT22;5262;59.958;17.726;2023-03-21T10:11:27;12.40;93.60
10431;DHT22;5262;59.958;17.726;2023-03-21T10:14:01;12.50;94.10
10431;DHT22;5262;59.958;17.726;2023-03-21T10:16:40;12.30;94.30
10431;DHT22;5262;59.958;17.726;2023-03-21T10:19:14;12.50;94.60
10431;DHT22;5262;59.958;17.726;2023-03-21T10:21:42;12.80;94.00
10431;DHT22;5262;59.958;17.726;2023-03-21T10:24:20;12.90;94.00
10431;DHT22;5262;59.958;17.726;2023-03-21T10:26:48;12.90;93.80
10431;DHT22;5262;59.958;17.726;2023-03-21T10:29:15;12.50;93.80
10431;DHT22;5262;59.958;17.726;2023-03-21T10:31:43;12.10;94.90
10431;DHT22;5262;59.958;17.726;2023-03-21T10:36:45;12.70;94.70
10431;DHT22;5262;59.958;17.726;2023-03-21T10:41:50;13.50;93.00
10431;DHT22;5262;59.958;17.726;2023-03-21T10:44:17;14.20;92.60
10431;DHT22;5262;59.958;17.726;2023-03-21T10:47:05;13.90;92.80
10431;DHT22;5262;59.958;17.726;2023-03-21T10:49:31;13.20;92.90
10431;DHT22;5262;59.958;17.726;2023-03-21T10:51:58;12.40;93.60
10431;DHT22;5262;59.958;17.726;2023-03-21T10:54:29;12.10;94.90
10431;DHT22;5262;59.958;17.726;2023-03-21T10:57:03;12.00;94.50
10431;DHT22;5262;59.958;17.726;2023-03-21T10:59:42;12.00;95.40
10431;DHT22;5262;59.958;17.726;2023-03-21T11:02:23;12.10;94.80
10431;DHT22;5262;59.958;17.726;2023-03-21T11:04:51;11.80;95.40
10431;DHT22;5262;59.958;17.726;2023-03-21T11:07:17;12.10;95.40
10431;DHT22;5262;59.958;17.726;2023-03-21T11:09:59;12.00;95.70
10431;DHT22;5262;59.958;17.726;2023-03-21T11:12:38;12.00;96.40
10431;DHT22;5262;59.958;17.726;2023-03-21T11:15:32;12.80;96.00
10431;DHT22;5262;59.958;17.726;2023-03-21T11:18:18;13.80;93.80
10431;DHT22;5262;59.958;17.726;2023-03-21T11:20:53;13.60;94.20
10431;DHT22;5262;59.958;17.726;2023-03-21T11:23:21;13.40;93.60
10431;DHT22;5262;59.958;17.726;2023-03-21T11:25:50;14.30;93.20
10431;DHT22;5262;59.958;17.726;2023-03-21T11:28:21;14.40;92.00
10431;DHT22;5262;59.958;17.726;2023-03-21T11:30:50;13.90;92.70
10431;DHT22;5262;59.958;17.726;2023-03-21T11:33:17;14.30;92.90
10431;DHT22;5262;59.958;17.726;2023-03-21T11:35:43;14.70;92.70
10431;DHT22;5262;59.958;17.726;2023-03-21T11:38:28;14.60;92.00
10431;DHT22;5262;59.958;17.726;2023-03-21T11:41:00;14.90;91.90
10431;DHT22;5262;59.958;17.726;2023-03-21T11:43:29;14.80;91.20
10431;DHT22;5262;59.958;17.726;2023-03-21T11:46:07;15.10;91.60
10431;DHT22;5262;59.958;17.726;2023-03-21T11:48:42;14.80;91.40
10431;DHT22;5262;59.958;17.726;2023-03-21T11:56:49;14.00;92.30
10431;DHT22;5262;59.958;17.726;2023-03-21T11:59:32;15.30;90.40
10431;DHT22;5262;59.958;17.726;2023-03-21T12:11:05;13.10;92.00
10431;DHT22;5262;59.958;17.726;2023-03-21T12:16:21;12.60;92.80
10431;DHT22;5262;59.958;17.726;2023-03-21T12:22:04;11.30;95.10
10431;DHT22;5262;59.958;17.726;2023-03-21T12:24:50;11.30;94.50
10431;DHT22;5262;59.958;17.726;2023-03-21T12:27:42;11.40;94.80
10431;DHT22;5262;59.958;17.726;2023-03-21T12:38:22;11.50;94.00
10431;DHT22;5262;59.958;17.726;2023-03-21T12:46:12;11.50;94.00
10431;DHT22;5262;59.958;17.726;2023-03-21T12:51:17;11.70;93.80
10431;DHT22;5262;59.958;17.726;2023-03-21T12:53:57;11.50;93.20
10431;DHT22;5262;59.958;17.726;2023-03-21T13:01:38;11.00;94.00
10431;DHT22;5262;59.958;17.726;2023-03-21T13:04:40;11.00;93.60
10431;DHT22;5262;59.958;17.726;2023-03-21T13:07:09;10.60;95.40
10431;DHT22;5262;59.958;17.726;2023-03-21T13:09:39;10.30;95.90
10431;DHT22;5262;59.958;17.726;2023-03-21T13:12:24;10.30;94.50
10431;DHT22;5262;59.958;17.726;2023-03-21T13:17:41;9.80;95.70
10431;DHT22;5262;59.958;17.726;2023-03-21T13:20:25;9.40;96.50
10431;DHT22;5262;59.958;17.726;2023-03-21T13:22:52;9.50;96.70
10431;DHT22;5262;59.958;17.726;2023-03-21T13:25:23;9.40;96.10
10431;DHT22;5262;59.958;17.726;2023-03-21T13:27:54;9.20;95.90
10431;DHT22;5262;59.958;17.726;2023-03-21T13:30:28;8.90;97.40
10431;DHT22;5262;59.958;17.726;2023-03-21T13:36:06;8.30;97.20
10431;DHT22;5262;59.958;17.726;2023-03-21T13:38:34;8.30;97.30
10431;DHT22;5262;59.958;17.726;2023-03-21T13:41:07;8.10;97.90
10431;DHT22;5262;59.958;17.726;2023-03-21T13:46:33;7.90;98.90
10431;DHT22;5262;59.958;17.726;2023-03-21T13:49:01;7.60;99.60
10431;DHT22;5262;59.958;17.726;2023-03-21T13:56:26;7.30;99.90
10431;DHT22;5262;59.958;17.726;2023-03-21T13:58:56;7.30;99.90
10431;DHT22;5262;59.958;17.726;2023-03-21T14:01:39;7.00;99.90
10431;DHT22;5262;59.958;17.726;2023-03-21T14:04:11;6.90;99.90
10431;DHT22;5262;59.958;17.726;2023-03-21T14:09:28;6.90;99.90
10431;DHT22;5262;59.958;17.726;2023-03-21T14:11:55;7.00;99.90
10431;DHT22;5262;59.958;17.726;2023-03-21T14:14:23;6.80;99.90
10431;DHT22;5262;59.958;17.726;2023-03-21T14:16:52;6.80;99.90
10431;DHT22;5262;59.958;17.726;2023-03-21T14:19:18;6.80;99.90
10431;DHT22;5262;59.958;17.726;2023-03-21T14:21:50;6.90;99.90
10431;DHT22;5262;59.958;17.726;2023-03-21T14:24:18;6.90;99.90
10431;DHT22;5262;59.958;17.726;2023-03-21T14:26:50;6.70;99.90
10431;DHT22;5262;59.958;17.726;2023-03-21T14:29:25;6.50;99.90
10431;DHT22;5262;59.958;17.726;2023-03-21T14:31:54;6.50;99.90
10431;DHT22;5262;59.958;17.726;2023-03-21T14:34:21;6.30;99.90
10431;DHT22;5262;59.958;17.726;2023-03-21T14:36:47;6.30;99.90
10431;DHT22;5262;59.958;17.726;2023-03-21T14:39:16;6.40;99.90
10431;DHT22;5262;59.958;17.726;2023-03-21T14:41:49;6.30;99.90
10431;DHT22;5262;59.958;17.726;2023-03-21T14:44:16;6.20;99.90
10431;DHT22;5262;59.958;17.726;2023-03-21T14:46:50;6.30;99.90
10431;DHT22;5262;59.958;17.726;2023-03-21T14:49:20;6.40;99.90
10431;DHT22;5262;59.958;17.726;2023-03-21T14:51:48;6.40;99.90
10431;DHT22;5262;59.958;17.726;2023-03-21T14:54:16;6.40;99.90
10431;DHT22;5262;59.958;17.726;2023-03-21T14:56:45;6.50;99.90
10431;DHT22;5262;59.958;17.726;2023-03-21T14:59:15;6.40;99.90
10431;DHT22;5262;59.958;17.726;2023-03-21T15:01:42;6.30;99.90
10431;DHT22;5262;59.958;17.726;2023-03-21T15:04:11;6.30;99.90
10431;DHT22;5262;59.958;17.726;2023-03-21T15:07:21;6.30;99.90
10431;DHT22;5262;59.958;17.726;2023-03-21T15:09:53;6.10;99.90
10431;DHT22;5262;59.958;17.726;2023-03-21T15:12:19;6.10;99.90
10431;DHT22;5262;59.958;17.726;2023-03-21T15:14:45;6.00;99.90
10431;DHT22;5262;59.958;17.726;2023-03-21T15:17:11;5.90;99.90
10431;DHT22;5262;59.958;17.726;2023-03-21T15:19:38;5.70;99.90
10431;DHT22;5262;59.958;17.726;2023-03-21T15:22:39;5.80;99.90
10431;DHT22;5262;59.958;17.726;2023-03-21T15:25:07;5.80;99.90
10431;DHT22;5262;59.958;17.726;2023-03-21T15:27:41;5.80;99.90
10431;DHT22;5262;59.958;17.726;2023-03-21T15:30:17;5.60;99.90
10431;DHT22;5262;59.958;17.726;2023-03-21T15:32:43;5.60;99.90
10431;DHT22;5262;59.958;17.726;2023-03-21T15:35:29;5.50;99.90
10431;DHT22;5262;59.958;17.726;2023-03-21T15:37:57;5.40;99.90
10431;DHT22;5262;59.958;17.726;2023-03-21T15:40:27;5.50;99.90
10431;DHT22;5262;59.958;17.726;2023-03-21T15:45:52;5.40;99.90
10431;DHT22;5262;59.958;17.726;2023-03-21T15:48:25;5.30;99.90
10431;DHT22;5262;59.958;17.726;2023-03-21T15:53:20;5.20;99.90
10431;DHT22;5262;59.958;17.726;2023-03-21T15:55:57;5.20;99.90
10431;DHT22;5262;59.958;17.726;2023-03-21T15:58:33;5.20;99.90
10431;DHT22;5262;59.958;17.726;2023-03-21T16:01:05;5.10;99.90
10431;DHT22;5262;59.958;17.726;2023-03-21T16:03:36;5.10;99.90
10431;DHT22;5262;59.958;17.726;2023-03-21T16:08:51;5.00;99.90
10431;DHT22;5262;59.958;17.726;2023-03-21T16:11:18;4.90;99.90
10431;DHT22;5262;59.958;17.726;2023-03-21T16:13:45;4.90;99.90
10431;DHT22;5262;59.958;17.726;2023-03-21T16:16:29;4.90;99.90
10431;DHT22;5262;59.958;17.726;2023-03-21T16:18:57;4.90;99.90
10431;DHT22;5262;59.958;17.726;2023-03-21T16:21:26;4.80;99.90
10431;DHT22;5262;59.958;17.726;2023-03-21T16:23:52;4.80;99.90
10431;DHT22;5262;59.958;17.726;2023-03-21T16:26:26;4.80;99.90
10431;DHT22;5262;59.958;17.726;2023-03-21T16:28:53;4.70;99.90
10431;DHT22;5262;59.958;17.726;2023-03-21T16:31:24;4.70;99.90
10431;DHT22;5262;59.958;17.726;2023-03-21T16:33:51;4.70;99.90
10431;DHT22;5262;59.958;17.726;2023-03-21T16:36:28;4.60;99.90
10431;DHT22;5262;59.958;17.726;2023-03-21T16:38:55;4.50;99.90
10431;DHT22;5262;59.958;17.726;2023-03-21T16:41:22;4.40;99.90
10431;DHT22;5262;59.958;17.726;2023-03-21T16:43:48;4.50;99.90
10431;DHT22;5262;59.958;17.726;2023-03-21T16:48:43;4.40;99.90
10431;DHT22;5262;59.958;17.726;2023-03-21T16:51:24;4.40;99.90
10431;DHT22;5262;59.958;17.726;2023-03-21T16:53:56;4.40;99.90
10431;DHT22;5262;59.958;17.726;2023-03-21T16:56:32;4.30;99.90
10431;DHT22;5262;59.958;17.726;2023-03-21T16:59:00;4.20;99.90
10431;DHT22;5262;59.958;17.726;2023-03-21T17:01:26;4.10;99.90
10431;DHT22;5262;59.958;17.726;2023-03-21T17:03:54;4.10;99.90
10431;DHT22;5262;59.958;17.726;2023-03-21T17:06:23;4.10;99.90
10431;DHT22;5262;59.958;17.726;2023-03-21T17:08:49;4.00;99.90
10431;DHT22;5262;59.958;17.726;2023-03-21T17:11:17;4.00;99.90
10431;DHT22;5262;59.958;17.726;2023-03-21T17:13:48;4.00;99.90
10431;DHT22;5262;59.958;17.726;2023-03-21T17:16:17;3.90;99.90
10431;DHT22;5262;59.958;17.726;2023-03-21T17:18:43;3.90;99.90
10431;DHT22;5262;59.958;17.726;2023-03-21T17:21:11;3.80;99.90
10431;DHT22;5262;59.958;17.726;2023-03-21T17:23:38;3.80;99.90
10431;DHT22;5262;59.958;17.726;2023-03-21T17:26:03;3.80;99.90
10431;DHT22;5262;59.958;17.726;2023-03-21T17:28:30;3.80;99.90
10431;DHT22;5262;59.958;17.726;2023-03-21T17:30:56;3.70;99.90
10431;DHT22;5262;59.958;17.726;2023-03-21T17:33:21;3.60;99.90
10431;DHT22;5262;59.958;17.726;2023-03-21T17:35:47;3.60;99.90
10431;DHT22;5262;59.958;17.726;2023-03-21T17:38:15;3.50;99.90